createdAt,value
2022-11-28T00:01:36.685Z,7.13
2022-11-28T00:04:06.207Z,6.95
2022-11-28T00:06:38.070Z,5.05
2022-11-28T00:09:08.093Z,5.43
2022-11-28T00:11:36.295Z,5.22
2022-11-28T00:14:04.418Z,5.38
2022-11-28T00:16:32.626Z,4.55
2022-11-28T00:19:02.125Z,4.40
2022-11-28T00:21:31.179Z,4.47
2022-11-28T00:23:59.955Z,4.18
2022-11-28T00:26:31.895Z,4.50
2022-11-28T00:29:02.073Z,4.28
2022-11-28T00:31:33.672Z,4.97
2022-11-28T00:34:02.870Z,4.45
2022-11-28T00:36:31.473Z,11.02
2022-11-28T00:38:59.476Z,10.48
2022-11-28T00:41:31.078Z,8.80
2022-11-28T00:43:59.504Z,8.50
2022-11-28T00:46:28.123Z,10.00
2022-11-28T00:48:56.380Z,8.70
2022-11-28T00:51:26.788Z,8.13
2022-11-28T00:53:56.817Z,7.28
2022-11-28T00:56:27.205Z,8.45
2022-11-28T00:58:56.959Z,6.00
2022-11-28T01:01:28.300Z,6.50
2022-11-28T01:03:58.846Z,6.00
2022-11-28T01:06:28.766Z,6.20
2022-11-28T01:08:58.748Z,5.53
2022-11-28T01:11:30.291Z,6.80
2022-11-28T01:14:01.932Z,6.35
2022-11-28T01:16:30.530Z,6.07
2022-11-28T01:19:02.205Z,5.13
2022-11-28T01:21:30.343Z,5.68
2022-11-28T01:23:58.784Z,5.45
2022-11-28T01:26:29.658Z,5.60
2022-11-28T01:29:00.732Z,5.90
2022-11-28T01:31:30.336Z,5.38
2022-11-28T01:33:59.241Z,5.57
2022-11-28T01:36:27.978Z,5.00
2022-11-28T01:38:56.150Z,4.63
2022-11-28T01:41:26.559Z,5.30
2022-11-28T01:44:06.366Z,5.72
2022-11-28T01:46:35.461Z,5.70
2022-11-28T01:49:10.305Z,6.93
2022-11-28T01:51:39.966Z,7.47
2022-11-28T01:54:08.449Z,7.30
2022-11-28T01:56:44.753Z,5.30
2022-11-28T01:59:17.400Z,5.05
2022-11-28T02:01:46.995Z,7.65
2022-11-28T02:04:15.583Z,7.05
2022-11-28T02:06:44.271Z,7.45
2022-11-28T02:09:14.491Z,7.30
2022-11-28T02:12:06.189Z,7.57
2022-11-28T02:14:56.836Z,7.05
2022-11-28T02:17:35.655Z,5.35
2022-11-28T02:20:34.073Z,5.88
2022-11-28T02:23:10.965Z,6.03
2022-11-28T02:26:07.002Z,6.03
2022-11-28T02:29:08.595Z,5.93
2022-11-28T02:32:08.987Z,6.28
2022-11-28T02:34:47.093Z,5.97
2022-11-28T02:37:26.114Z,5.80
2022-11-28T02:40:04.582Z,5.43
2022-11-28T02:42:39.707Z,5.45
2022-11-28T02:45:14.242Z,5.88
2022-11-28T02:47:46.983Z,5.85
2022-11-28T02:50:23.483Z,6.38
2022-11-28T02:52:54.990Z,5.63
2022-11-28T02:55:23.544Z,5.50
2022-11-28T02:57:55.143Z,6.15
2022-11-28T03:00:29.390Z,5.25
2022-11-28T03:03:15.015Z,5.85
2022-11-28T03:05:51.932Z,6.10
2022-11-28T03:08:37.238Z,5.72
2022-11-28T03:11:15.876Z,5.72
2022-11-28T03:13:57.527Z,6.63
2022-11-28T03:16:30.301Z,5.45
2022-11-28T03:19:07.162Z,5.53
2022-11-28T03:21:41.956Z,5.38
2022-11-28T03:24:16.333Z,6.63
2022-11-28T03:26:53.117Z,5.22
2022-11-28T03:29:26.932Z,5.32
2022-11-28T03:31:59.434Z,5.60
2022-11-28T03:34:33.053Z,5.95
2022-11-28T03:37:07.303Z,5.75
2022-11-28T03:39:39.039Z,5.57
2022-11-28T03:42:13.561Z,5.72
2022-11-28T03:44:46.255Z,6.00
2022-11-28T03:47:14.268Z,5.57
2022-11-28T03:49:48.980Z,6.00
2022-11-28T03:52:26.709Z,6.25
2022-11-28T03:54:59.695Z,6.13
2022-11-28T03:57:35.408Z,6.00
2022-11-28T04:00:07.322Z,6.38
2022-11-28T04:02:47.492Z,5.68
2022-11-28T04:05:23.888Z,5.80
2022-11-28T04:07:59.679Z,6.00
2022-11-28T04:10:33.090Z,6.32
2022-11-28T04:13:06.914Z,5.72
2022-11-28T04:15:41.694Z,5.95
2022-11-28T04:18:19.999Z,6.60
2022-11-28T04:20:52.228Z,6.18
2022-11-28T04:23:23.433Z,6.25
2022-11-28T04:25:54.807Z,6.75
2022-11-28T04:28:27.453Z,6.50
2022-11-28T04:30:58.454Z,5.32
2022-11-28T04:33:30.384Z,6.78
2022-11-28T04:36:00.429Z,6.30
2022-11-28T04:38:33.269Z,5.88
2022-11-28T04:41:06.350Z,6.65
2022-11-28T04:43:40.661Z,7.13
2022-11-28T04:46:13.063Z,6.55
2022-11-28T04:48:41.617Z,6.90
2022-11-28T04:51:20.372Z,6.43
2022-11-28T04:53:55.386Z,7.10
2022-11-28T04:56:29.447Z,6.40
2022-11-28T04:58:59.520Z,6.35
2022-11-28T05:01:32.588Z,6.38
2022-11-28T05:04:01.075Z,6.55
2022-11-28T05:06:32.211Z,6.07
2022-11-28T05:09:02.205Z,6.70
2022-11-28T05:11:30.487Z,5.97
2022-11-28T05:13:58.761Z,6.72
2022-11-28T05:16:27.042Z,6.47
2022-11-28T05:18:55.089Z,6.60
2022-11-28T05:21:25.739Z,6.90
2022-11-28T05:23:54.009Z,6.68
2022-11-28T05:26:23.942Z,7.03
2022-11-28T05:28:52.590Z,6.35
2022-11-28T05:31:23.011Z,7.15
2022-11-28T05:33:51.391Z,9.93
2022-11-28T05:36:19.636Z,9.10
2022-11-28T05:38:48.464Z,12.35
2022-11-28T05:41:21.098Z,7.40
2022-11-28T05:43:51.421Z,7.93
2022-11-28T05:48:48.046Z,9.15
2022-11-28T05:51:16.031Z,9.88
2022-11-28T05:53:44.186Z,8.52
2022-11-28T05:56:16.140Z,9.02
2022-11-28T05:58:44.772Z,6.78
2022-11-28T06:01:17.116Z,6.70
2022-11-28T06:03:45.743Z,8.82
2022-11-28T06:06:15.153Z,12.60
2022-11-28T06:08:43.988Z,8.37
2022-11-28T06:11:14.846Z,7.95
2022-11-28T06:13:43.574Z,7.35
2022-11-28T06:16:12.891Z,7.90
2022-11-28T06:18:42.682Z,7.50
2022-11-28T06:21:12.619Z,7.35
2022-11-28T06:23:42.077Z,6.82
2022-11-28T06:26:11.877Z,7.25
2022-11-28T06:28:40.604Z,7.65
2022-11-28T06:31:12.096Z,7.50
2022-11-28T06:33:40.056Z,11.68
2022-11-28T06:36:10.686Z,8.60
2022-11-28T06:38:38.814Z,7.70
2022-11-28T06:41:08.429Z,7.55
2022-11-28T06:43:36.384Z,7.75
2022-11-28T06:46:04.631Z,7.70
2022-11-28T06:48:32.613Z,7.60
2022-11-28T06:51:04.041Z,7.47
2022-11-28T06:53:33.542Z,7.20
2022-11-28T06:56:05.744Z,6.35
2022-11-28T06:58:34.034Z,8.38
2022-11-28T07:01:07.636Z,7.65
2022-11-28T07:03:36.124Z,7.30
2022-11-28T07:06:04.501Z,7.90
2022-11-28T07:08:34.233Z,7.72
2022-11-28T07:11:11.487Z,7.57
2022-11-28T07:13:40.004Z,7.55
2022-11-28T07:16:09.604Z,8.48
2022-11-28T07:18:38.270Z,8.20
2022-11-28T07:21:06.642Z,8.23
2022-11-28T07:23:35.869Z,7.43
2022-11-28T07:26:05.706Z,9.10
2022-11-28T07:28:34.639Z,8.95
2022-11-28T07:31:05.428Z,8.88
2022-11-28T07:33:33.682Z,12.07
2022-11-28T07:36:02.771Z,10.38
2022-11-28T07:38:31.096Z,10.98
2022-11-28T07:41:06.993Z,17.63
2022-11-28T07:43:35.129Z,19.80
2022-11-28T07:46:06.609Z,16.60
2022-11-28T07:48:35.029Z,12.75
2022-11-28T07:51:07.396Z,14.23
2022-11-28T07:53:35.476Z,9.23
2022-11-28T07:56:05.505Z,8.50
2022-11-28T07:58:34.533Z,8.57
2022-11-28T08:01:08.765Z,8.65
2022-11-28T08:03:36.841Z,8.32
2022-11-28T08:06:05.250Z,8.50
2022-11-28T08:08:33.791Z,8.52
2022-11-28T08:11:03.908Z,8.65
2022-11-28T08:13:33.772Z,7.97
2022-11-28T08:16:05.156Z,8.35
2022-11-28T08:18:33.249Z,8.85
2022-11-28T08:21:06.184Z,8.10
2022-11-28T08:23:35.743Z,8.82
2022-11-28T08:26:04.807Z,9.25
2022-11-28T08:28:34.545Z,8.50
2022-11-28T08:31:10.574Z,10.02
2022-11-28T08:33:38.988Z,9.57
2022-11-28T08:36:08.033Z,8.75
2022-11-28T08:38:37.134Z,9.45
2022-11-28T08:41:07.405Z,10.23
2022-11-28T08:46:06.381Z,9.52
2022-11-28T08:48:35.770Z,8.90
2022-11-28T08:51:04.043Z,9.80
2022-11-28T08:53:32.852Z,10.23
2022-11-28T08:56:01.300Z,9.82
2022-11-28T08:58:29.319Z,9.77
2022-11-28T09:00:59.027Z,9.75
2022-11-28T09:03:27.670Z,9.23
2022-11-28T09:06:02.473Z,9.18
2022-11-28T09:08:30.465Z,9.20
2022-11-28T09:10:58.701Z,8.35
2022-11-28T09:13:27.428Z,9.57
2022-11-28T09:15:55.908Z,9.95
2022-11-28T09:18:27.280Z,8.50
2022-11-28T09:20:59.261Z,9.30
2022-11-28T09:23:27.804Z,8.13
2022-11-28T09:25:55.851Z,8.95
2022-11-28T09:28:24.114Z,9.15
2022-11-28T09:31:00.457Z,8.93
2022-11-28T09:33:30.170Z,8.23
2022-11-28T09:35:58.852Z,9.52
2022-11-28T09:38:28.177Z,8.55
2022-11-28T09:40:56.440Z,8.93
2022-11-28T09:43:31.624Z,9.93
2022-11-28T09:46:02.425Z,10.68
2022-11-28T09:48:36.622Z,9.27
2022-11-28T09:51:08.468Z,9.40
2022-11-28T09:53:47.041Z,9.68
2022-11-28T09:56:18.573Z,9.40
2022-11-28T09:58:51.607Z,8.07
2022-11-28T10:01:27.894Z,8.85
2022-11-28T10:04:03.309Z,8.30
2022-11-28T10:06:40.503Z,9.40
2022-11-28T10:09:22.525Z,9.35
2022-11-28T10:12:06.224Z,10.27
2022-11-28T10:14:51.942Z,10.15
2022-11-28T10:17:34.699Z,9.68
2022-11-28T10:20:07.761Z,8.68
2022-11-28T10:22:41.624Z,8.88
2022-11-28T10:25:19.039Z,11.43
2022-11-28T10:27:48.887Z,9.10
2022-11-28T10:30:21.870Z,8.63
2022-11-28T10:32:57.545Z,7.78
2022-11-28T10:35:38.324Z,10.60
2022-11-28T10:38:12.833Z,8.57
2022-11-28T10:40:49.200Z,9.10
2022-11-28T10:43:30.622Z,8.90
2022-11-28T10:46:13.483Z,9.57
2022-11-28T10:48:48.402Z,9.35
2022-11-28T10:51:30.368Z,9.60
2022-11-28T10:54:10.597Z,9.32
2022-11-28T10:56:52.536Z,10.40
2022-11-28T10:59:31.038Z,10.15
2022-11-28T11:02:00.719Z,10.02
2022-11-28T11:04:29.393Z,10.38
2022-11-28T11:07:16.162Z,10.50
2022-11-28T11:09:47.373Z,9.43
2022-11-28T11:12:21.919Z,9.95
2022-11-28T11:14:50.067Z,9.57
2022-11-28T11:17:36.143Z,10.38
2022-11-28T11:20:27.910Z,9.75
2022-11-28T11:22:59.234Z,10.45
2022-11-28T11:25:29.166Z,9.32
2022-11-28T11:28:01.017Z,9.60
2022-11-28T11:30:32.060Z,9.43
2022-11-28T11:33:03.097Z,10.00
2022-11-28T11:35:35.671Z,9.15
2022-11-28T11:38:19.525Z,9.77
2022-11-28T11:40:48.691Z,10.20
2022-11-28T11:43:28.445Z,10.35
2022-11-28T11:46:07.459Z,10.15
2022-11-28T11:48:41.206Z,9.27
2022-11-28T11:51:22.790Z,10.15
2022-11-28T11:54:01.968Z,9.02
2022-11-28T11:56:33.363Z,9.65
2022-11-28T11:59:04.692Z,10.23
2022-11-28T12:01:37.226Z,9.15
2022-11-28T12:04:30.616Z,11.07
2022-11-28T12:06:59.706Z,11.57
2022-11-28T12:09:35.233Z,11.13
2022-11-28T12:12:10.990Z,14.77
2022-11-28T12:14:39.599Z,12.23
2022-11-28T12:20:43.308Z,14.00
2022-11-28T12:25:51.464Z,10.05
2022-11-28T12:28:30.739Z,10.13
2022-11-28T12:31:08.558Z,9.90
2022-11-28T12:33:47.948Z,10.48
2022-11-28T12:36:26.659Z,10.37
2022-11-28T12:39:14.026Z,10.05
2022-11-28T12:42:02.787Z,10.10
2022-11-28T12:44:46.998Z,10.75
2022-11-28T12:47:30.033Z,10.45
2022-11-28T12:50:04.972Z,9.77
2022-11-28T12:52:41.757Z,9.85
2022-11-28T12:55:22.513Z,9.52
2022-11-28T12:58:02.799Z,10.63
2022-11-28T13:00:35.486Z,10.95
2022-11-28T13:03:12.009Z,10.77
2022-11-28T13:05:51.154Z,10.93
2022-11-28T13:08:35.487Z,11.50
2022-11-28T13:11:14.861Z,9.57
2022-11-28T13:13:50.739Z,11.00
2022-11-28T13:16:27.537Z,10.77
2022-11-28T13:19:03.345Z,10.20
2022-11-28T13:21:39.890Z,9.82
2022-11-28T13:24:26.075Z,10.40
2022-11-28T13:27:04.654Z,10.90
2022-11-28T13:29:46.764Z,11.30
2022-11-28T13:32:23.679Z,10.75
2022-11-28T13:34:52.511Z,11.20
2022-11-28T13:40:24.043Z,11.13
2022-11-28T13:43:07.554Z,10.70
2022-11-28T13:45:42.502Z,9.73
2022-11-28T13:51:37.355Z,9.60
2022-11-28T13:54:44.807Z,10.73
2022-11-28T13:57:22.941Z,15.20
2022-11-28T13:59:59.381Z,11.60
2022-11-28T14:02:37.144Z,11.20
2022-11-28T14:05:07.532Z,10.35
2022-11-28T14:07:37.357Z,9.93
2022-11-28T14:10:27.109Z,21.90
2022-11-28T14:13:15.475Z,15.00
2022-11-28T14:15:56.976Z,42.65
2022-11-28T14:18:56.380Z,25.38
2022-11-28T14:21:33.846Z,15.85
2022-11-28T14:24:12.302Z,37.58
2022-11-28T14:26:43.064Z,29.88
2022-11-28T14:29:22.521Z,17.30
2022-11-28T14:32:21.777Z,16.48
2022-11-28T14:34:46.246Z,11.70
2022-11-28T14:37:57.877Z,60.60
2022-11-28T14:41:06.157Z,14.35
2022-11-28T14:43:37.247Z,13.85
2022-11-28T14:46:58.994Z,11.75
2022-11-28T14:49:27.495Z,11.57
2022-11-28T14:52:42.377Z,12.65
2022-11-28T14:55:21.842Z,23.60
2022-11-28T14:57:56.994Z,11.65
2022-11-28T15:00:27.850Z,12.07
2022-11-28T15:03:22.512Z,13.75
2022-11-28T15:05:53.050Z,11.85
2022-11-28T15:08:47.320Z,11.32
2022-11-28T15:11:39.475Z,23.88
2022-11-28T15:14:19.706Z,19.20
2022-11-28T15:16:50.825Z,21.13
2022-11-28T15:19:26.489Z,21.05
2022-11-28T15:21:56.256Z,14.20
2022-11-28T15:24:28.537Z,13.25
2022-11-28T15:26:58.774Z,16.88
2022-11-28T15:29:28.884Z,19.65
2022-11-28T15:31:59.121Z,30.05
2022-11-28T15:36:58.829Z,23.17
2022-11-28T15:39:35.887Z,17.27
2022-11-28T15:42:08.201Z,52.88
2022-11-28T15:44:38.057Z,72.55
2022-11-28T15:47:06.962Z,23.75
2022-11-28T15:49:38.514Z,16.35
2022-11-28T15:52:06.771Z,17.75
2022-11-28T15:54:41.297Z,17.40
2022-11-28T15:57:20.443Z,19.90
2022-11-28T15:59:48.898Z,15.75
2022-11-28T16:02:23.708Z,18.85
2022-11-28T16:04:56.178Z,27.05
2022-11-28T16:07:24.587Z,17.42
2022-11-28T16:09:59.304Z,15.65
2022-11-28T16:12:28.838Z,16.50
2022-11-28T16:15:01.933Z,31.50
2022-11-28T16:17:32.911Z,18.95
2022-11-28T16:20:03.060Z,21.45
2022-11-28T16:22:36.786Z,24.13
2022-11-28T16:25:23.879Z,21.52
2022-11-28T16:27:53.978Z,19.65
2022-11-28T16:30:37.725Z,18.77
2022-11-28T16:33:36.459Z,22.13
2022-11-28T16:36:22.790Z,19.20
2022-11-28T16:38:53.374Z,18.33
2022-11-28T16:41:26.273Z,20.13
2022-11-28T16:43:57.079Z,17.92
2022-11-28T16:46:34.918Z,16.50
2022-11-28T16:49:05.484Z,17.08
2022-11-28T16:51:36.570Z,15.90
2022-11-28T16:54:37.991Z,16.30
2022-11-28T16:57:14.700Z,19.08
2022-11-28T16:59:45.627Z,19.35
2022-11-28T17:02:16.202Z,22.98
2022-11-28T17:04:45.092Z,22.67
2022-11-28T17:07:14.669Z,20.90
2022-11-28T17:09:43.113Z,20.92
2022-11-28T17:12:23.348Z,17.08
2022-11-28T17:14:51.567Z,18.17
2022-11-28T17:17:21.165Z,17.52
2022-11-28T17:19:49.400Z,17.58
2022-11-28T17:22:19.771Z,17.42
2022-11-28T17:24:50.089Z,31.10
2022-11-28T17:29:47.532Z,17.30
2022-11-28T17:32:15.744Z,17.02
2022-11-28T17:34:45.956Z,17.02
2022-11-28T17:37:14.408Z,16.42
2022-11-28T17:40:02.490Z,16.75
2022-11-28T17:42:32.048Z,16.67
2022-11-28T17:45:00.564Z,15.65
2022-11-28T17:47:28.594Z,16.50
2022-11-28T17:49:56.604Z,15.50
2022-11-28T17:52:30.212Z,15.93
2022-11-28T17:55:07.066Z,15.57
2022-11-28T17:57:37.795Z,14.88
2022-11-28T18:00:07.558Z,16.17
2022-11-28T18:02:42.004Z,21.33
2022-11-28T18:05:10.795Z,19.58
2022-11-28T18:07:40.495Z,23.70
2022-11-28T18:10:12.708Z,24.17
2022-11-28T18:12:42.339Z,25.63
2022-11-28T18:15:11.350Z,23.02
2022-11-28T18:17:39.552Z,20.20
2022-11-28T18:20:11.230Z,21.67
2022-11-28T18:22:39.304Z,20.00
2022-11-28T18:25:09.139Z,40.92
2022-11-28T18:27:37.548Z,28.75
2022-11-28T18:30:08.855Z,27.33
2022-11-28T18:32:37.906Z,38.95
2022-11-28T18:35:07.379Z,25.03
2022-11-28T18:37:35.344Z,26.20
2022-11-28T18:40:08.939Z,31.02
2022-11-28T18:42:37.560Z,23.45
2022-11-28T18:45:07.966Z,25.17
2022-11-28T18:47:36.488Z,22.88
2022-11-28T18:50:04.823Z,23.73
2022-11-28T18:52:32.816Z,24.42
2022-11-28T18:55:00.780Z,24.75
2022-11-28T18:57:32.730Z,24.15
2022-11-28T19:00:01.909Z,22.95
2022-11-28T19:02:32.728Z,23.15
2022-11-28T19:05:00.855Z,22.90
2022-11-28T19:07:28.958Z,35.35
2022-11-28T19:09:57.630Z,22.27
2022-11-28T19:12:26.016Z,27.58
2022-11-28T19:14:58.711Z,22.45
2022-11-28T19:17:31.390Z,20.35
2022-11-28T19:19:59.384Z,21.40
2022-11-28T19:22:27.778Z,21.63
2022-11-28T19:24:56.263Z,20.67
2022-11-28T19:27:24.413Z,19.65
2022-11-28T19:29:54.216Z,20.63
2022-11-28T19:32:22.424Z,19.42
2022-11-28T19:34:53.648Z,21.27
2022-11-28T19:37:21.691Z,24.25
2022-11-28T19:39:50.072Z,33.03
2022-11-28T19:42:18.802Z,27.85
2022-11-28T19:44:46.979Z,19.77
2022-11-28T19:47:14.930Z,17.15
2022-11-28T19:49:44.294Z,16.30
2022-11-28T19:52:13.915Z,16.35
2022-11-28T19:54:41.976Z,24.33
2022-11-28T19:57:11.346Z,19.38
2022-11-28T19:59:39.742Z,25.47
2022-11-28T20:02:07.824Z,20.63
2022-11-28T20:04:35.999Z,21.02
2022-11-28T20:07:04.347Z,21.85
2022-11-28T20:09:33.674Z,23.33
2022-11-28T20:12:02.108Z,22.10
2022-11-28T20:14:32.401Z,21.17
2022-11-28T20:17:01.143Z,21.90
2022-11-28T20:19:29.506Z,22.75
2022-11-28T20:21:58.582Z,21.50
2022-11-28T20:24:27.192Z,22.20
2022-11-28T20:26:56.940Z,22.35
2022-11-28T20:29:27.849Z,23.77
2022-11-28T20:31:57.177Z,22.92
2022-11-28T20:34:26.876Z,20.77
2022-11-28T20:36:56.029Z,21.58
2022-11-28T20:39:25.034Z,23.95
2022-11-28T20:41:53.193Z,21.35
2022-11-28T20:44:22.907Z,22.77
2022-11-28T20:46:50.884Z,20.00
2022-11-28T20:49:19.420Z,19.52
2022-11-28T20:51:47.964Z,18.80
2022-11-28T20:54:15.930Z,20.50
2022-11-28T20:57:19.081Z,19.98
2022-11-28T20:59:35.173Z,21.15
2022-11-28T21:02:03.319Z,20.63
2022-11-28T21:04:31.509Z,21.13
2022-11-28T21:06:59.769Z,19.92
2022-11-28T21:09:27.781Z,18.65
2022-11-28T21:11:58.085Z,20.25
2022-11-28T21:14:27.898Z,18.48
2022-11-28T21:16:57.856Z,18.45
2022-11-28T21:19:26.605Z,18.05
2022-11-28T21:21:54.591Z,19.30
2022-11-28T21:24:23.180Z,17.58
2022-11-28T21:26:53.928Z,18.30
2022-11-28T21:29:24.425Z,16.83
2022-11-28T21:31:52.947Z,19.38
2022-11-28T21:34:22.895Z,18.88
2022-11-28T21:36:50.977Z,18.88
2022-11-28T21:39:22.218Z,18.77
2022-11-28T21:41:51.327Z,18.33
2022-11-28T21:44:19.422Z,17.77
2022-11-28T21:46:47.541Z,16.85
2022-11-28T21:49:15.652Z,19.15
2022-11-28T21:51:45.390Z,16.38
2022-11-28T21:54:13.626Z,20.33
2022-11-28T21:56:41.955Z,17.50
2022-11-28T21:59:10.320Z,18.27
2022-11-28T22:01:40.609Z,17.70
2022-11-28T22:04:11.096Z,19.45
2022-11-28T22:06:40.117Z,26.75
2022-11-28T22:09:10.213Z,31.17
2022-11-28T22:11:40.812Z,32.15
2022-11-28T22:14:09.051Z,32.15
2022-11-28T22:16:38.249Z,123.88
2022-11-28T22:19:06.787Z,43.72
2022-11-28T22:21:55.054Z,40.22
2022-11-28T22:24:26.087Z,36.97
2022-11-28T22:26:55.708Z,32.67
2022-11-28T22:29:25.162Z,34.25
2022-11-28T22:31:54.701Z,31.40
2022-11-28T22:34:24.054Z,27.57
2022-11-28T22:36:52.013Z,25.48
2022-11-28T22:39:21.496Z,28.83
2022-11-28T22:41:51.329Z,30.85
2022-11-28T22:44:20.932Z,33.75
2022-11-28T22:46:48.953Z,24.42
2022-11-28T22:49:17.605Z,24.67
2022-11-28T22:51:45.958Z,21.90
2022-11-28T22:54:14.699Z,26.27
2022-11-28T22:56:42.819Z,32.20
2022-11-28T22:59:15.312Z,26.00
2022-11-28T23:01:44.432Z,24.80
2022-11-28T23:04:13.316Z,22.42
2022-11-28T23:06:41.708Z,22.48
2022-11-28T23:09:13.460Z,21.70
2022-11-28T23:11:42.130Z,22.27
2022-11-28T23:14:15.404Z,23.67
2022-11-28T23:16:45.349Z,20.45
2022-11-28T23:19:16.022Z,21.48
2022-11-28T23:21:47.065Z,21.35
2022-11-28T23:26:45.054Z,21.98
2022-11-28T23:29:16.323Z,22.05
2022-11-28T23:31:46.934Z,23.13
2022-11-28T23:34:15.513Z,21.95
2022-11-28T23:36:45.890Z,20.10
2022-11-28T23:39:16.292Z,21.20
2022-11-28T23:41:45.877Z,21.92
2022-11-28T23:44:17.050Z,21.67
2022-11-28T23:46:45.568Z,24.05
2022-11-28T23:49:14.112Z,21.80
2022-11-28T23:51:42.482Z,21.98
2022-11-28T23:54:12.104Z,23.10
2022-11-28T23:56:41.615Z,24.63
2022-11-28T23:59:11.101Z,25.77
